createdAt,value
2018-07-04T00:00:58.060Z,1.90
2018-07-04T00:03:37.568Z,1.80
2018-07-04T00:06:17.048Z,2.40
2018-07-04T00:08:56.504Z,2.90
2018-07-04T00:11:35.861Z,2.23
2018-07-04T00:14:15.222Z,1.63
2018-07-04T00:16:54.561Z,1.93
2018-07-04T00:19:34.028Z,1.80
2018-07-04T00:22:13.444Z,2.00
2018-07-04T00:24:52.867Z,1.63
2018-07-04T00:27:32.269Z,1.77
2018-07-04T00:30:11.759Z,2.07
2018-07-04T00:32:50.964Z,1.70
2018-07-04T00:35:30.366Z,1.80
2018-07-04T00:38:09.845Z,2.03
2018-07-04T00:40:49.267Z,1.90
2018-07-04T00:43:28.611Z,1.80
2018-07-04T00:46:08.038Z,1.73
2018-07-04T00:48:47.335Z,1.50
2018-07-04T00:51:26.787Z,2.23
2018-07-04T00:54:06.273Z,1.70
2018-07-04T00:56:45.654Z,1.83
2018-07-04T00:59:25.072Z,1.97
2018-07-04T01:02:04.539Z,1.90
2018-07-04T01:04:43.815Z,1.67
2018-07-04T01:07:23.355Z,1.97
2018-07-04T01:10:02.680Z,1.83
2018-07-04T01:12:42.236Z,1.70
2018-07-04T01:15:21.601Z,1.73
2018-07-04T01:18:01.012Z,2.07
2018-07-04T01:20:45.800Z,2.00
2018-07-04T01:23:25.280Z,1.70
2018-07-04T01:26:04.689Z,1.63
2018-07-04T01:28:48.252Z,1.60
2018-07-04T01:31:27.697Z,2.30
2018-07-04T01:34:07.351Z,1.70
2018-07-04T01:36:47.095Z,1.80
2018-07-04T01:39:26.831Z,2.17
2018-07-04T01:42:06.191Z,1.70
2018-07-04T01:44:45.776Z,2.00
2018-07-04T01:47:25.252Z,2.03
2018-07-04T01:50:04.660Z,1.60
2018-07-04T01:52:44.219Z,1.77
2018-07-04T01:55:23.685Z,2.23
2018-07-04T01:58:03.086Z,1.87
2018-07-04T02:00:42.591Z,1.93
2018-07-04T02:03:22.051Z,1.90
2018-07-04T02:06:01.365Z,2.13
2018-07-04T02:08:40.881Z,1.63
2018-07-04T02:11:20.232Z,1.67
2018-07-04T02:13:59.563Z,1.47
2018-07-04T02:16:39.002Z,1.77
2018-07-04T02:19:18.579Z,2.00
2018-07-04T02:21:57.995Z,1.80
2018-07-04T02:24:37.432Z,1.67
2018-07-04T02:27:16.823Z,1.63
2018-07-04T02:29:56.227Z,1.73
2018-07-04T02:32:35.693Z,1.60
2018-07-04T02:35:15.177Z,1.40
2018-07-04T02:37:54.542Z,1.57
2018-07-04T02:40:33.881Z,2.00
2018-07-04T02:43:13.339Z,1.80
2018-07-04T02:45:52.596Z,2.13
2018-07-04T02:48:31.912Z,1.70
2018-07-04T02:51:11.376Z,1.83
2018-07-04T02:53:50.903Z,2.20
2018-07-04T02:56:30.367Z,1.90
2018-07-04T02:59:09.835Z,1.63
2018-07-04T03:01:49.223Z,1.60
2018-07-04T03:04:28.691Z,1.43
2018-07-04T03:07:08.097Z,2.00
2018-07-04T03:09:47.455Z,2.00
2018-07-04T03:12:26.868Z,1.97
2018-07-04T03:15:06.091Z,1.30
2018-07-04T03:17:45.435Z,1.97
2018-07-04T03:20:24.815Z,2.10
2018-07-04T03:23:04.154Z,1.47
2018-07-04T03:25:43.583Z,1.73
2018-07-04T03:28:22.928Z,1.70
2018-07-04T03:31:02.300Z,2.07
2018-07-04T03:33:41.667Z,2.00
2018-07-04T03:36:21.043Z,1.73
2018-07-04T03:39:00.430Z,1.80
2018-07-04T03:41:39.710Z,1.77
2018-07-04T03:44:19.302Z,2.03
2018-07-04T03:46:58.627Z,1.47
2018-07-04T03:49:37.961Z,1.83
2018-07-04T03:52:17.398Z,2.07
2018-07-04T03:54:56.823Z,2.10
2018-07-04T03:57:36.218Z,1.90
2018-07-04T04:00:15.600Z,1.90
2018-07-04T04:02:54.962Z,1.50
2018-07-04T04:05:34.231Z,2.10
2018-07-04T04:08:13.767Z,1.90
2018-07-04T04:10:53.207Z,1.77
2018-07-04T04:13:32.534Z,1.63
2018-07-04T04:16:11.936Z,1.67
2018-07-04T04:18:51.440Z,1.70
2018-07-04T04:21:30.764Z,1.80
2018-07-04T04:24:10.231Z,1.50
2018-07-04T04:26:49.605Z,1.53
2018-07-04T04:29:29.072Z,1.90
2018-07-04T04:32:08.395Z,1.97
2018-07-04T04:34:47.824Z,1.83
2018-07-04T04:37:27.315Z,2.23
2018-07-04T04:40:06.727Z,1.80
2018-07-04T04:42:46.090Z,1.60
2018-07-04T04:45:25.656Z,2.27
2018-07-04T04:48:05.151Z,1.83
2018-07-04T04:50:44.531Z,2.27
2018-07-04T04:53:24.016Z,1.80
2018-07-04T04:56:03.466Z,1.87
2018-07-04T04:58:42.859Z,2.10
2018-07-04T05:01:22.303Z,1.40
2018-07-04T05:04:01.787Z,1.47
2018-07-04T05:06:41.238Z,1.27
2018-07-04T05:09:20.578Z,1.70
2018-07-04T05:11:59.956Z,1.90
2018-07-04T05:14:39.482Z,2.07
2018-07-04T05:17:18.808Z,1.63
2018-07-04T05:19:58.253Z,1.40
2018-07-04T05:22:37.779Z,1.93
2018-07-04T05:25:17.326Z,1.70
2018-07-04T05:27:56.687Z,1.67
2018-07-04T05:30:36.093Z,1.60
2018-07-04T05:33:15.445Z,2.40
2018-07-04T05:35:54.867Z,1.77
2018-07-04T05:41:25.212Z,2.30
2018-07-04T05:44:04.615Z,2.10
2018-07-04T05:46:43.963Z,2.20
2018-07-04T05:49:23.324Z,2.03
2018-07-04T05:52:02.693Z,1.53
2018-07-04T05:54:42.104Z,2.10
2018-07-04T05:57:21.487Z,1.67
2018-07-04T06:00:00.926Z,1.33
2018-07-04T06:02:40.349Z,1.50
2018-07-04T06:05:19.756Z,1.70
2018-07-04T06:07:59.471Z,1.60
2018-07-04T06:10:38.938Z,1.60
2018-07-04T06:13:18.558Z,1.80
2018-07-04T06:15:58.023Z,1.57
2018-07-04T06:18:37.336Z,1.90
2018-07-04T06:21:16.992Z,1.93
2018-07-04T06:23:56.544Z,2.13
2018-07-04T06:26:35.794Z,1.90
2018-07-04T06:29:15.160Z,1.93
2018-07-04T06:31:54.752Z,1.90
2018-07-04T06:34:34.203Z,2.33
2018-07-04T06:37:13.624Z,1.50
2018-07-04T06:39:40.813Z,1.70
2018-07-04T06:42:08.099Z,2.00
2018-07-04T06:44:35.199Z,2.40
2018-07-04T06:47:02.440Z,2.27
2018-07-04T06:49:29.523Z,2.20
2018-07-04T06:51:56.598Z,1.97
2018-07-04T06:54:23.809Z,2.00
2018-07-04T06:56:51.146Z,2.20
2018-07-04T06:59:18.223Z,2.90
2018-07-04T07:01:45.356Z,1.90
2018-07-04T07:04:24.892Z,1.77
2018-07-04T07:07:04.250Z,1.60
2018-07-04T07:09:43.671Z,2.10
2018-07-04T07:12:23.158Z,2.03
2018-07-04T07:15:02.795Z,2.30
2018-07-04T07:17:42.114Z,2.00
2018-07-04T07:20:21.599Z,2.93
2018-07-04T07:23:00.900Z,2.70
2018-07-04T07:25:40.232Z,2.27
2018-07-04T07:28:19.641Z,2.33
2018-07-04T07:30:59.070Z,2.27
2018-07-04T07:33:38.618Z,1.90
2018-07-04T07:36:18.190Z,1.97
2018-07-04T07:38:57.628Z,2.00
2018-07-04T07:41:37.032Z,2.00
2018-07-04T07:44:16.584Z,2.30
2018-07-04T07:46:56.069Z,1.67
2018-07-04T07:49:35.436Z,2.33
2018-07-04T07:52:14.911Z,2.20
2018-07-04T07:54:54.300Z,2.20
2018-07-04T07:57:33.709Z,1.70
2018-07-04T08:00:13.236Z,1.70
2018-07-04T08:02:52.703Z,2.23
2018-07-04T08:05:36.834Z,1.97
2018-07-04T08:08:17.050Z,1.70
2018-07-04T08:10:56.563Z,2.17
2018-07-04T08:13:36.137Z,2.10
2018-07-04T08:16:15.716Z,2.43
2018-07-04T08:18:55.132Z,2.00
2018-07-04T08:21:34.523Z,1.90
2018-07-04T08:24:14.296Z,2.13
2018-07-04T08:26:53.930Z,1.80
2018-07-04T08:29:33.507Z,2.20
2018-07-04T08:32:12.937Z,1.63
2018-07-04T08:34:52.391Z,1.97
2018-07-04T08:37:31.765Z,1.87
2018-07-04T08:40:11.164Z,1.97
2018-07-04T08:42:50.896Z,2.00
2018-07-04T08:45:30.447Z,2.07
2018-07-04T08:48:10.095Z,1.80
2018-07-04T08:50:49.587Z,1.60
2018-07-04T08:53:29.011Z,1.90
2018-07-04T08:56:08.472Z,2.07
2018-07-04T08:58:47.977Z,1.97
2018-07-04T09:01:27.684Z,1.97
2018-07-04T09:04:07.277Z,1.60
2018-07-04T09:06:46.840Z,1.97
2018-07-04T09:09:26.408Z,2.13
2018-07-04T09:15:08.524Z,1.93
2018-07-04T09:17:47.904Z,2.67
2018-07-04T09:20:27.367Z,1.80
2018-07-04T09:23:06.779Z,1.83
2018-07-04T09:25:46.187Z,2.00
2018-07-04T09:28:25.606Z,1.63
2018-07-04T09:31:05.019Z,2.37
2018-07-04T09:33:44.562Z,1.80
2018-07-04T09:36:23.952Z,1.93
2018-07-04T09:39:03.371Z,2.00
2018-07-04T09:41:42.743Z,1.90
2018-07-04T09:44:22.096Z,1.93
2018-07-04T09:47:01.537Z,1.97
2018-07-04T09:49:41.057Z,2.20
2018-07-04T09:52:20.360Z,2.20
2018-07-04T09:54:59.634Z,2.80
2018-07-04T09:57:39.041Z,1.60
2018-07-04T10:00:22.528Z,1.90
2018-07-04T10:03:01.879Z,1.83
2018-07-04T10:05:41.253Z,1.83
2018-07-04T10:08:20.580Z,2.00
2018-07-04T10:11:00.040Z,1.70
2018-07-04T10:13:39.369Z,1.80
2018-07-04T10:16:18.712Z,2.00
2018-07-04T10:18:58.113Z,1.97
2018-07-04T10:21:37.703Z,2.00
2018-07-04T10:24:17.448Z,1.97
2018-07-04T10:26:56.770Z,2.27
2018-07-04T10:29:36.168Z,1.70
2018-07-04T10:32:18.431Z,1.80
2018-07-04T10:34:57.982Z,1.80
2018-07-04T10:37:37.386Z,1.80
2018-07-04T10:40:16.823Z,2.00
2018-07-04T10:42:56.221Z,1.80
2018-07-04T10:45:36.744Z,1.63
2018-07-04T10:48:19.464Z,2.13
2018-07-04T10:50:58.821Z,1.90
2018-07-04T10:53:38.283Z,1.80
2018-07-04T10:56:17.694Z,1.90
2018-07-04T10:58:57.880Z,1.50
2018-07-04T11:01:37.259Z,1.90
2018-07-04T11:04:17.808Z,1.57
2018-07-04T11:06:57.852Z,1.77
2018-07-04T11:09:38.211Z,1.80
2018-07-04T11:12:17.540Z,1.83
2018-07-04T11:14:57.534Z,1.80
2018-07-04T11:17:36.907Z,1.80
2018-07-04T11:20:16.356Z,1.80
2018-07-04T11:22:55.869Z,1.93
2018-07-04T11:25:35.223Z,1.77
2018-07-04T11:28:14.658Z,2.07
2018-07-04T11:30:58.051Z,1.70
2018-07-04T11:33:37.619Z,2.07
2018-07-04T11:36:17.155Z,1.83
2018-07-04T11:38:56.531Z,1.83
2018-07-04T11:41:35.739Z,1.80
2018-07-04T11:44:15.264Z,2.03
2018-07-04T11:46:42.409Z,2.03
2018-07-04T11:49:09.561Z,1.70
2018-07-04T11:51:37.445Z,1.87
2018-07-04T11:54:04.615Z,1.70
2018-07-04T11:56:31.763Z,2.43
2018-07-04T11:58:58.877Z,1.70
2018-07-04T12:01:26.028Z,2.73
2018-07-04T12:04:05.378Z,2.03
2018-07-04T12:06:44.756Z,2.40
2018-07-04T12:09:11.875Z,1.80
2018-07-04T12:11:39.945Z,1.60
2018-07-04T12:14:07.047Z,1.93
2018-07-04T12:16:34.167Z,1.50
2018-07-04T12:19:01.256Z,1.50
2018-07-04T12:21:28.386Z,1.47
2018-07-04T12:23:55.462Z,1.67
2018-07-04T12:26:22.548Z,1.30
2018-07-04T12:28:49.627Z,1.30
2018-07-04T12:31:16.721Z,1.67
2018-07-04T12:33:43.799Z,1.50
2018-07-04T12:36:10.892Z,1.40
2018-07-04T12:38:37.962Z,1.87
2018-07-04T12:41:05.068Z,1.80
2018-07-04T12:43:32.296Z,1.47
2018-07-04T12:45:59.296Z,1.60
2018-07-04T12:48:26.362Z,1.90
2018-07-04T12:50:53.492Z,1.80
2018-07-04T12:53:20.591Z,1.70
2018-07-04T12:55:59.929Z,1.53
2018-07-04T12:58:39.432Z,2.07
2018-07-04T13:01:18.768Z,2.20
2018-07-04T13:03:58.160Z,2.10
2018-07-04T13:06:37.692Z,1.70
2018-07-04T13:09:16.959Z,2.00
2018-07-04T13:11:56.275Z,2.80
2018-07-04T13:14:35.630Z,1.80
2018-07-04T13:17:15.132Z,1.70
2018-07-04T13:19:54.492Z,2.00
2018-07-04T13:22:33.827Z,1.90
2018-07-04T13:25:14.921Z,1.90
2018-07-04T13:27:54.279Z,1.97
2018-07-04T13:30:33.550Z,1.93
2018-07-04T13:33:13.037Z,1.70
2018-07-04T13:35:52.456Z,2.27
2018-07-04T13:38:31.856Z,1.60
2018-07-04T13:41:11.371Z,1.63
2018-07-04T13:43:50.652Z,1.80
2018-07-04T13:46:30.018Z,2.70
2018-07-04T13:49:09.637Z,2.07
2018-07-04T13:51:49.141Z,2.13
2018-07-04T13:54:28.587Z,1.70
2018-07-04T13:57:08.179Z,2.40
2018-07-04T13:59:47.555Z,2.10
2018-07-04T14:10:46.925Z,1.87
2018-07-04T14:33:03.509Z,2.10
2018-07-04T14:50:13.895Z,2.10
2018-07-04T14:55:57.542Z,2.00
2018-07-04T14:58:36.887Z,2.40
2018-07-04T15:01:16.303Z,2.20
2018-07-04T15:03:55.713Z,2.17
2018-07-04T15:06:35.283Z,2.20
2018-07-04T15:09:14.607Z,1.90
2018-07-04T15:11:53.908Z,2.73
2018-07-04T15:14:33.335Z,2.70
2018-07-04T15:17:12.722Z,2.23
2018-07-04T15:19:52.048Z,2.10
2018-07-04T15:22:31.332Z,2.43
2018-07-04T15:25:10.644Z,2.63
2018-07-04T15:27:50.085Z,2.23
2018-07-04T15:30:29.448Z,2.33
2018-07-04T15:36:01.148Z,2.20
2018-07-04T15:38:40.559Z,2.90
2018-07-04T15:41:19.985Z,2.60
2018-07-04T15:43:59.460Z,2.20
2018-07-04T15:46:38.767Z,2.60
2018-07-04T15:49:19.011Z,2.50
2018-07-04T15:51:58.675Z,2.60
2018-07-04T15:54:38.792Z,2.70
2018-07-04T15:57:18.293Z,2.80
2018-07-04T15:59:57.620Z,2.80
2018-07-04T16:02:36.931Z,3.00
2018-07-04T16:05:16.440Z,2.60
2018-07-04T16:07:55.677Z,2.43
2018-07-04T16:10:35.139Z,2.80
2018-07-04T16:13:14.527Z,2.90
2018-07-04T16:15:53.909Z,2.67
2018-07-04T16:18:33.231Z,2.50
2018-07-04T16:21:12.790Z,3.20
2018-07-04T16:23:52.206Z,2.60
2018-07-04T16:26:31.540Z,2.87
2018-07-04T16:29:10.998Z,3.03
2018-07-04T16:31:50.280Z,2.90
2018-07-04T16:34:29.520Z,2.37
2018-07-04T16:37:08.827Z,2.90
2018-07-04T16:39:48.151Z,2.73
2018-07-04T16:42:27.522Z,2.90
2018-07-04T16:45:06.815Z,2.30
2018-07-04T16:47:46.363Z,2.60
2018-07-04T16:50:25.840Z,2.60
2018-07-04T16:53:05.148Z,3.17
2018-07-04T16:55:44.532Z,2.70
2018-07-04T16:58:23.904Z,3.07
2018-07-04T17:01:03.320Z,3.00
2018-07-04T17:03:42.670Z,3.20
2018-07-04T17:06:21.919Z,2.97
2018-07-04T17:09:01.265Z,2.90
2018-07-04T17:11:40.559Z,2.60
2018-07-04T17:14:19.989Z,2.30
2018-07-04T17:16:59.219Z,2.40
2018-07-04T17:19:38.827Z,3.03
2018-07-04T17:22:18.151Z,3.20
2018-07-04T17:24:57.629Z,2.63
2018-07-04T17:27:37.063Z,3.87
2018-07-04T17:30:16.648Z,3.50
2018-07-04T17:39:51.276Z,2.13
2018-07-04T17:42:30.878Z,2.37
2018-07-04T17:45:10.240Z,2.40
2018-07-04T17:47:50.194Z,3.10
2018-07-04T17:50:29.938Z,3.13
2018-07-04T17:53:09.553Z,2.90
2018-07-04T17:55:48.948Z,3.00
2018-07-04T17:58:28.823Z,2.80
2018-07-04T18:01:10.094Z,2.50
2018-07-04T18:03:50.675Z,3.00
2018-07-04T18:06:32.726Z,2.63
2018-07-04T18:12:16.990Z,3.13
2018-07-04T18:14:56.988Z,2.27
2018-07-04T18:17:37.321Z,2.17
2018-07-04T18:20:18.421Z,2.03
2018-07-04T18:22:59.440Z,2.83
2018-07-04T18:26:29.117Z,2.07
2018-07-04T18:29:11.246Z,3.00
2018-07-04T18:31:51.439Z,2.50
2018-07-04T18:34:35.678Z,2.33
2018-07-04T18:37:16.268Z,2.37
2018-07-04T18:39:55.715Z,2.43
2018-07-04T18:42:35.539Z,3.00
2018-07-04T18:45:17.266Z,2.73
2018-07-04T18:47:58.875Z,2.37
2018-07-04T18:50:42.115Z,2.53
2018-07-04T18:53:21.621Z,2.70
2018-07-04T18:56:01.195Z,3.10
2018-07-04T18:58:40.713Z,3.17
2018-07-04T19:01:20.483Z,3.03
2018-07-04T19:04:01.357Z,3.13
2018-07-04T19:06:44.414Z,3.17
2018-07-04T19:09:25.359Z,3.30
2018-07-04T19:12:08.268Z,3.10
2018-07-04T19:14:49.998Z,3.60
2018-07-04T19:17:29.987Z,3.07
2018-07-04T19:20:09.783Z,2.80
2018-07-04T19:22:50.458Z,3.13
2018-07-04T19:25:32.899Z,3.20
2018-07-04T19:28:18.445Z,3.17
2018-07-04T19:33:49.035Z,2.93
2018-07-04T19:36:29.920Z,3.17
2018-07-04T19:39:09.669Z,3.20
2018-07-04T19:41:49.510Z,2.83
2018-07-04T19:44:31.143Z,3.97
2018-07-04T19:47:12.906Z,2.50
2018-07-04T19:50:06.987Z,2.87
2018-07-04T19:52:49.446Z,3.00
2018-07-04T19:55:30.087Z,3.07
2018-07-04T19:58:09.767Z,2.67
2018-07-04T20:00:50.200Z,2.90
2018-07-04T20:03:30.880Z,2.60
2018-07-04T20:06:11.561Z,2.57
2018-07-04T20:08:52.528Z,2.53
2018-07-04T20:11:33.285Z,3.50
2018-07-04T20:14:14.697Z,2.47
2018-07-04T20:16:54.193Z,2.60
2018-07-04T20:19:34.427Z,2.40
2018-07-04T20:22:14.877Z,2.67
2018-07-04T20:24:55.066Z,2.60
2018-07-04T20:27:35.330Z,3.10
2018-07-04T20:30:21.669Z,2.80
2018-07-04T20:36:18.214Z,2.50
2018-07-04T20:38:57.815Z,3.10
2018-07-04T20:41:37.411Z,2.70
2018-07-04T20:44:19.163Z,2.70
2018-07-04T20:46:58.868Z,2.50
2018-07-04T20:49:39.296Z,2.60
2018-07-04T20:52:18.819Z,2.70
2018-07-04T20:54:59.918Z,3.10
2018-07-04T20:57:41.235Z,2.90
2018-07-04T21:00:21.151Z,2.20
2018-07-04T21:03:03.517Z,2.73
2018-07-04T21:05:46.234Z,2.90
2018-07-04T21:08:25.742Z,2.70
2018-07-04T21:11:06.018Z,3.03
2018-07-04T21:13:46.018Z,2.90
2018-07-04T21:16:25.868Z,3.10
2018-07-04T21:19:07.379Z,2.80
2018-07-04T21:21:58.831Z,3.00
2018-07-04T21:24:41.789Z,2.70
2018-07-04T21:27:22.123Z,3.10
2018-07-04T21:30:01.660Z,3.10
2018-07-04T21:32:41.904Z,2.60
2018-07-04T21:35:21.349Z,3.30
2018-07-04T21:38:00.901Z,2.93
2018-07-04T21:40:41.763Z,2.97
2018-07-04T21:43:22.416Z,2.60
2018-07-04T21:46:02.981Z,2.97
2018-07-04T21:48:42.587Z,4.00
2018-07-04T21:51:22.118Z,2.80
2018-07-04T21:54:02.077Z,3.20
2018-07-04T21:56:41.513Z,2.80
2018-07-04T21:59:21.263Z,2.80
2018-07-04T22:02:01.640Z,2.50
2018-07-04T22:04:42.218Z,2.70
2018-07-04T22:07:23.167Z,3.20
2018-07-04T22:10:03.384Z,2.90
2018-07-04T22:12:45.258Z,2.60
2018-07-04T22:15:26.764Z,2.20
2018-07-04T22:18:07.503Z,3.17
2018-07-04T22:20:46.945Z,2.70
2018-07-04T22:23:26.962Z,2.57
2018-07-04T22:26:07.602Z,2.67
2018-07-04T22:28:47.821Z,2.53
2018-07-04T22:31:29.096Z,2.60
2018-07-04T22:34:10.881Z,2.83
2018-07-04T22:36:54.361Z,2.53
2018-07-04T22:39:34.610Z,2.60
2018-07-04T22:42:15.039Z,2.70
2018-07-04T22:44:56.882Z,3.00
2018-07-04T22:47:37.469Z,3.00
2018-07-04T22:50:16.975Z,2.47
2018-07-04T23:00:50.407Z,2.83
2018-07-04T23:03:29.941Z,3.10
2018-07-04T23:06:09.459Z,2.80
2018-07-04T23:08:48.782Z,2.67
2018-07-04T23:11:28.276Z,2.87
2018-07-04T23:14:07.735Z,2.83
2018-07-04T23:16:47.092Z,3.17
2018-07-04T23:19:26.442Z,2.83
2018-07-04T23:22:05.863Z,3.50
2018-07-04T23:24:45.268Z,2.77
2018-07-04T23:27:24.536Z,3.07
2018-07-04T23:30:04.012Z,3.23
2018-07-04T23:32:43.347Z,2.87
2018-07-04T23:35:22.972Z,3.07
2018-07-04T23:38:02.427Z,3.00
2018-07-04T23:40:41.703Z,3.43
2018-07-04T23:43:21.242Z,3.30
2018-07-04T23:46:00.597Z,2.70
2018-07-04T23:48:40.001Z,3.47
2018-07-04T23:51:19.648Z,2.83
2018-07-04T23:53:59.163Z,3.00
2018-07-04T23:56:38.483Z,2.70
2018-07-04T23:59:17.936Z,2.50
